createdAt,value
2019-04-23T00:04:16.881Z,14.00
2019-04-23T00:09:32.878Z,15.98
2019-04-23T00:14:47.960Z,13.85
2019-04-23T00:19:50.250Z,12.58
2019-04-23T00:30:04.376Z,13.53
2019-04-23T00:35:06.400Z,16.55
2019-04-23T00:40:11.325Z,13.93
2019-04-23T00:45:30.662Z,16.80
2019-04-23T00:50:42.262Z,22.55
2019-04-23T01:00:57.857Z,19.00
2019-04-23T01:06:06.479Z,11.05
2019-04-23T01:11:11.204Z,13.38
2019-04-23T01:16:14.979Z,16.05
2019-04-23T01:21:09.560Z,17.77
2019-04-23T01:26:41.898Z,14.73
2019-04-23T01:31:54.788Z,12.68
2019-04-23T01:36:56.054Z,13.45
2019-04-23T01:42:12.950Z,14.05
2019-04-23T01:47:25.197Z,15.23
2019-04-23T01:52:34.960Z,17.05
2019-04-23T01:57:46.697Z,12.13
2019-04-23T02:02:55.681Z,14.25
2019-04-23T02:08:06.539Z,11.15
2019-04-23T02:13:16.408Z,13.15
2019-04-23T02:28:49.643Z,17.40
2019-04-23T02:39:21.832Z,15.25
2019-04-23T03:04:57.646Z,13.60
2019-04-23T03:10:11.855Z,14.87
2019-04-23T03:21:11.652Z,15.50
2019-04-23T03:25:59.956Z,14.07
2019-04-23T03:51:34.089Z,16.55
2019-04-23T03:56:56.668Z,22.90
2019-04-23T04:02:02.881Z,13.30
2019-04-23T04:07:18.456Z,13.10
2019-04-23T04:12:16.920Z,13.50
2019-04-23T04:17:17.862Z,13.72
2019-04-23T04:32:47.146Z,17.98
2019-04-23T04:43:20.500Z,28.27
2019-04-23T04:48:00.742Z,35.03
2019-04-23T04:53:26.861Z,24.20
2019-04-23T04:58:25.602Z,20.17
2019-04-23T05:08:41.547Z,11.63
2019-04-23T05:13:51.562Z,19.77
2019-04-23T05:19:02.298Z,12.20
2019-04-23T05:24:04.552Z,12.28
2019-04-23T05:29:20.071Z,14.85
2019-04-23T05:34:14.828Z,17.45
2019-04-23T05:39:31.258Z,17.37
2019-04-23T05:44:52.547Z,14.85
2019-04-23T05:49:41.397Z,15.55
2019-04-23T05:59:54.757Z,37.93
2019-04-23T06:05:16.108Z,29.55
2019-04-23T06:10:27.308Z,42.13
2019-04-23T06:15:31.747Z,26.77
2019-04-23T06:20:43.212Z,15.70
2019-04-23T06:25:57.301Z,19.02
2019-04-23T06:31:02.277Z,28.15
2019-04-23T06:36:10.313Z,17.37
2019-04-23T06:46:24.298Z,15.05
2019-04-23T06:51:27.196Z,13.08
2019-04-23T06:56:33.471Z,13.48
2019-04-23T07:02:22.242Z,15.13
2019-04-23T07:12:47.100Z,14.38
2019-04-23T07:18:05.802Z,15.63
2019-04-23T07:23:19.474Z,12.75
2019-04-23T07:28:43.766Z,15.88
2019-04-23T07:33:52.219Z,12.35
2019-04-23T07:39:01.833Z,13.53
2019-04-23T07:44:36.890Z,15.88
2019-04-23T07:49:41.459Z,13.07
2019-04-23T07:55:06.606Z,12.35
2019-04-23T08:05:25.200Z,19.87
2019-04-23T08:10:31.759Z,13.60
2019-04-23T08:15:57.384Z,15.07
2019-04-23T08:20:57.264Z,23.27
2019-04-23T08:26:19.405Z,21.33
2019-04-23T08:31:21.971Z,14.70
2019-04-23T08:36:29.417Z,14.40
2019-04-23T08:43:18.037Z,17.82
2019-04-23T08:46:57.051Z,18.55
2019-04-23T08:52:09.553Z,21.93
2019-04-23T08:57:47.064Z,16.85
2019-04-23T09:06:08.035Z,20.77
2019-04-23T09:08:15.123Z,23.45
2019-04-23T09:13:43.842Z,27.55
2019-04-23T09:18:31.194Z,20.03
2019-04-23T09:28:48.792Z,19.32
2019-04-23T09:39:00.369Z,18.77
2019-04-23T09:44:39.415Z,22.45
2019-04-23T09:54:34.272Z,18.70
2019-04-23T10:00:25.563Z,18.70
2019-04-23T10:05:12.489Z,18.92
2019-04-23T10:10:07.995Z,27.80
2019-04-23T10:15:22.836Z,22.48
2019-04-23T10:20:24.816Z,21.90
2019-04-23T10:25:32.177Z,23.70
2019-04-23T10:30:40.653Z,23.98
2019-04-23T10:35:55.200Z,22.30
2019-04-23T10:40:57.972Z,19.55
2019-04-23T10:46:27.874Z,20.48
2019-04-23T10:51:40.979Z,31.05
2019-04-23T10:56:53.241Z,39.73
2019-04-23T11:02:15.371Z,34.05
2019-04-23T11:07:25.265Z,25.88
2019-04-23T11:12:32.063Z,28.17
2019-04-23T11:17:38.411Z,31.12
2019-04-23T11:33:00.743Z,31.27
2019-04-23T11:53:46.470Z,43.00
2019-04-23T11:58:42.878Z,33.78
2019-04-23T12:03:56.459Z,40.25
2019-04-23T12:08:57.028Z,34.13
2019-04-23T12:14:24.278Z,29.05
2019-04-23T12:19:51.254Z,31.17
2019-04-23T12:24:58.604Z,55.90
2019-04-23T12:40:00.120Z,61.63
2019-04-23T12:45:17.989Z,37.70
2019-04-23T12:55:27.944Z,33.65
2019-04-23T13:00:35.845Z,33.10
2019-04-23T13:10:45.366Z,27.45
2019-04-23T13:15:51.939Z,30.80
2019-04-23T13:21:16.766Z,27.95
2019-04-23T13:26:30.899Z,29.55
2019-04-23T13:31:20.380Z,36.40
2019-04-23T13:36:39.408Z,33.85
2019-04-23T13:41:40.395Z,43.23
2019-04-23T13:47:02.946Z,45.73
2019-04-23T13:52:19.793Z,74.55
2019-04-23T13:57:46.421Z,96.60
2019-04-23T14:02:31.355Z,66.42
2019-04-23T14:07:38.562Z,41.53
2019-04-23T14:12:43.666Z,41.68
2019-04-23T14:18:17.404Z,34.20
2019-04-23T14:28:14.406Z,39.08
2019-04-23T14:33:17.465Z,37.03
2019-04-23T14:43:31.043Z,29.75
2019-04-23T14:53:46.389Z,34.85
2019-04-23T14:59:07.153Z,35.38
2019-04-23T15:04:19.240Z,45.65
2019-04-23T15:14:23.462Z,40.65
2019-04-23T15:19:38.084Z,35.83
2019-04-23T15:24:41.304Z,39.83
2019-04-23T15:29:39.271Z,34.95
2019-04-23T15:35:07.835Z,35.52
2019-04-23T15:40:08.195Z,34.20
2019-04-23T15:45:15.134Z,33.50
2019-04-23T15:50:41.015Z,31.33
2019-04-23T15:55:30.329Z,31.50
2019-04-23T16:00:38.419Z,43.85
2019-04-23T16:05:23.138Z,32.45
2019-04-23T16:11:06.901Z,34.40
2019-04-23T16:16:07.615Z,33.08
2019-04-23T16:21:27.277Z,32.03
2019-04-23T16:26:31.262Z,28.15
2019-04-23T16:31:34.798Z,33.58
2019-04-23T16:36:38.360Z,33.78
2019-04-23T16:41:54.339Z,32.53
2019-04-23T16:47:03.793Z,33.18
2019-04-23T16:52:12.559Z,36.33
2019-04-23T17:07:24.191Z,29.12
2019-04-23T17:12:46.206Z,32.48
2019-04-23T17:17:51.824Z,33.83
2019-04-23T17:23:08.645Z,26.35
2019-04-23T17:28:12.638Z,28.85
2019-04-23T17:38:33.720Z,34.10
2019-04-23T17:43:46.999Z,34.50
2019-04-23T17:48:48.028Z,35.68
2019-04-23T17:53:59.872Z,29.20
2019-04-23T17:59:28.316Z,33.18
2019-04-23T18:09:32.764Z,31.73
2019-04-23T18:14:22.774Z,28.95
2019-04-23T18:19:37.587Z,34.88
2019-04-23T18:24:53.578Z,34.13
2019-04-23T18:30:02.665Z,33.42
2019-04-23T18:40:10.635Z,32.67
2019-04-23T18:45:31.553Z,35.03
2019-04-23T18:50:49.644Z,35.90
2019-04-23T19:06:17.182Z,42.55
2019-04-23T19:11:24.174Z,37.08
2019-04-23T19:16:25.165Z,33.27
2019-04-23T19:21:57.519Z,34.83
2019-04-23T19:27:03.548Z,37.98
2019-04-23T19:31:55.613Z,39.45
2019-04-23T19:57:42.287Z,44.03
2019-04-23T20:08:16.795Z,36.48
2019-04-23T20:13:02.577Z,44.60
2019-04-23T20:18:06.716Z,43.05
2019-04-23T20:23:40.246Z,37.67
2019-04-23T20:28:51.303Z,41.20
2019-04-23T20:33:59.056Z,40.10
2019-04-23T20:44:01.356Z,33.88
2019-04-23T20:49:10.980Z,35.23
2019-04-23T20:54:19.527Z,45.88
2019-04-23T20:59:25.044Z,38.58
2019-04-23T21:04:39.773Z,63.13
2019-04-23T21:10:00.906Z,48.52
2019-04-23T21:20:16.293Z,42.33
2019-04-23T21:25:08.318Z,41.90
2019-04-23T21:30:23.023Z,39.75
2019-04-23T21:35:42.860Z,38.33
2019-04-23T21:40:59.192Z,39.35
2019-04-23T21:51:28.620Z,35.80
2019-04-23T21:56:10.894Z,36.95
2019-04-23T22:01:28.214Z,42.33
2019-04-23T22:06:38.864Z,41.50
2019-04-23T22:17:00.970Z,46.33
2019-04-23T22:26:58.369Z,44.35
2019-04-23T22:32:02.374Z,50.28
2019-04-23T22:47:40.928Z,40.67
2019-04-23T22:52:48.926Z,39.58
2019-04-23T23:03:06.843Z,45.12
2019-04-23T23:13:20.613Z,68.42
2019-04-23T23:18:33.995Z,56.65
2019-04-23T23:23:39.464Z,53.00
2019-04-23T23:28:46.134Z,53.85
2019-04-23T23:34:02.611Z,51.42
2019-04-23T23:39:16.295Z,55.80
2019-04-23T23:49:27.918Z,51.80
2019-04-23T23:54:27.497Z,44.90
2019-04-23T23:59:48.537Z,44.00
